createdAt,value
2022-08-17T00:00:42.844Z,24.18
2022-08-17T00:03:10.023Z,24.15
2022-08-17T00:05:43.688Z,24.14
2022-08-17T00:08:12.879Z,24.11
2022-08-17T00:10:42.313Z,24.08
2022-08-17T00:13:14.865Z,24.06
2022-08-17T00:15:43.961Z,24.02
2022-08-17T00:19:01.245Z,24.00
2022-08-17T00:21:04.008Z,23.97
2022-08-17T00:23:46.210Z,23.92
2022-08-17T00:26:43.427Z,23.89
2022-08-17T00:29:08.249Z,23.86
2022-08-17T00:31:37.408Z,23.84
2022-08-17T00:34:08.697Z,23.81
2022-08-17T00:36:38.911Z,23.78
2022-08-17T00:39:07.227Z,23.77
2022-08-17T00:41:35.829Z,23.73
2022-08-17T00:44:06.754Z,23.70
2022-08-17T00:46:40.376Z,23.64
2022-08-17T00:49:09.972Z,23.61
2022-08-17T00:51:44.698Z,23.56
2022-08-17T00:54:16.818Z,23.53
2022-08-17T00:56:48.623Z,23.50
2022-08-17T00:59:20.288Z,23.47
2022-08-17T01:01:50.859Z,23.44
2022-08-17T01:04:21.931Z,23.41
2022-08-17T01:06:52.539Z,23.37
2022-08-17T01:09:21.846Z,23.32
2022-08-17T01:11:52.167Z,23.28
2022-08-17T01:14:21.446Z,23.24
2022-08-17T01:16:51.518Z,23.22
2022-08-17T01:19:23.233Z,23.20
2022-08-17T01:22:02.257Z,23.17
2022-08-17T01:24:33.796Z,23.15
2022-08-17T01:27:10.188Z,23.13
2022-08-17T01:29:42.099Z,23.10
2022-08-17T01:32:10.961Z,23.07
2022-08-17T01:34:42.604Z,23.03
2022-08-17T01:37:12.588Z,23.00
2022-08-17T01:39:48.553Z,22.97
2022-08-17T01:42:23.411Z,22.93
2022-08-17T01:44:56.795Z,22.90
2022-08-17T01:47:25.195Z,22.89
2022-08-17T01:49:53.532Z,22.86
2022-08-17T01:52:23.775Z,22.84
2022-08-17T01:54:54.402Z,22.81
2022-08-17T01:57:22.778Z,22.79
2022-08-17T01:59:51.131Z,22.75
2022-08-17T02:02:30.565Z,22.72
2022-08-17T02:05:00.552Z,22.69
2022-08-17T02:07:29.046Z,22.66
2022-08-17T02:09:58.808Z,22.62
2022-08-17T02:12:39.265Z,22.58
2022-08-17T02:15:16.502Z,22.56
2022-08-17T02:17:45.270Z,22.53
2022-08-17T02:20:13.905Z,22.50
2022-08-17T02:22:44.525Z,22.46
2022-08-17T02:25:17.550Z,22.42
2022-08-17T02:27:45.909Z,22.38
2022-08-17T02:31:01.866Z,22.34
2022-08-17T02:33:06.363Z,22.30
2022-08-17T02:35:38.198Z,22.26
2022-08-17T02:38:07.828Z,22.23
2022-08-17T02:40:40.532Z,22.20
2022-08-17T02:43:09.505Z,22.16
2022-08-17T02:45:38.163Z,22.13
2022-08-17T02:48:07.198Z,22.09
2022-08-17T02:50:35.698Z,22.07
2022-08-17T02:53:05.309Z,22.04
2022-08-17T02:55:36.082Z,22.00
2022-08-17T02:58:05.999Z,21.98
2022-08-17T03:00:37.778Z,21.92
2022-08-17T03:03:07.045Z,21.90
2022-08-17T03:05:40.940Z,21.87
2022-08-17T03:08:11.740Z,21.83
2022-08-17T03:10:42.217Z,21.82
2022-08-17T03:13:13.033Z,21.80
2022-08-17T03:15:45.079Z,21.79
2022-08-17T03:18:24.987Z,21.76
2022-08-17T03:20:55.777Z,21.75
2022-08-17T03:23:25.396Z,21.73
2022-08-17T03:25:55.086Z,21.71
2022-08-17T03:28:26.336Z,21.69
2022-08-17T03:30:54.731Z,21.67
2022-08-17T03:33:23.398Z,21.65
2022-08-17T03:35:52.393Z,21.63
2022-08-17T03:38:21.765Z,21.61
2022-08-17T03:40:57.030Z,21.60
2022-08-17T03:43:31.131Z,21.57
2022-08-17T03:46:28.453Z,21.56
2022-08-17T03:49:21.391Z,21.54
2022-08-17T03:52:06.978Z,21.51
2022-08-17T03:54:52.577Z,21.48
2022-08-17T03:57:21.098Z,21.46
2022-08-17T03:59:51.371Z,21.46
2022-08-17T04:02:25.750Z,21.44
2022-08-17T04:04:54.224Z,21.42
2022-08-17T04:07:24.922Z,21.41
2022-08-17T04:09:57.830Z,21.38
2022-08-17T04:12:30.497Z,21.37
2022-08-17T04:15:00.426Z,21.36
2022-08-17T04:17:30.170Z,21.33
2022-08-17T04:19:58.546Z,21.31
2022-08-17T04:22:30.803Z,21.28
2022-08-17T04:25:05.746Z,21.27
2022-08-17T04:27:34.129Z,21.26
2022-08-17T04:30:05.891Z,21.25
2022-08-17T04:33:03.713Z,21.24
2022-08-17T04:35:25.352Z,21.24
2022-08-17T04:37:53.862Z,21.23
2022-08-17T04:40:41.504Z,21.24
2022-08-17T04:43:12.639Z,21.23
2022-08-17T04:45:55.410Z,21.23
2022-08-17T04:48:29.809Z,21.23
2022-08-17T04:51:09.902Z,21.23
2022-08-17T04:53:40.001Z,21.24
2022-08-17T04:56:16.015Z,21.25
2022-08-17T04:58:49.787Z,21.25
2022-08-17T05:01:23.110Z,21.27
2022-08-17T05:03:52.135Z,21.28
2022-08-17T05:06:20.879Z,21.31
2022-08-17T05:08:49.534Z,21.32
2022-08-17T05:11:18.280Z,21.35
2022-08-17T05:13:49.951Z,21.38
2022-08-17T05:16:21.099Z,21.40
2022-08-17T05:18:49.499Z,21.42
2022-08-17T05:21:18.613Z,21.44
2022-08-17T05:23:50.304Z,21.47
2022-08-17T05:26:26.705Z,21.50
2022-08-17T05:29:02.819Z,21.55
2022-08-17T05:31:32.732Z,21.58
2022-08-17T05:34:01.159Z,21.62
2022-08-17T05:36:43.306Z,21.68
2022-08-17T05:39:17.059Z,21.72
2022-08-17T05:41:48.163Z,21.74
2022-08-17T05:44:17.699Z,21.79
2022-08-17T05:46:52.035Z,21.83
2022-08-17T05:49:22.828Z,21.85
2022-08-17T05:52:14.032Z,21.90
2022-08-17T05:55:00.559Z,21.95
2022-08-17T05:57:47.549Z,21.99
2022-08-17T06:00:30.763Z,22.05
2022-08-17T06:03:26.052Z,22.11
2022-08-17T06:06:25.230Z,22.18
2022-08-17T06:09:08.465Z,22.25
2022-08-17T06:11:44.121Z,22.30
2022-08-17T06:14:29.609Z,22.36
2022-08-17T06:17:04.665Z,22.43
2022-08-17T06:19:41.002Z,22.47
2022-08-17T06:22:13.930Z,22.53
2022-08-17T06:24:50.023Z,22.60
2022-08-17T06:27:26.454Z,22.65
2022-08-17T06:30:04.056Z,22.71
2022-08-17T06:32:32.465Z,22.75
2022-08-17T06:35:04.454Z,22.77
2022-08-17T06:37:51.549Z,22.80
2022-08-17T06:40:35.746Z,22.80
2022-08-17T06:43:17.274Z,22.82
2022-08-17T06:45:50.101Z,22.83
2022-08-17T06:48:25.530Z,22.86
2022-08-17T06:51:01.140Z,22.88
2022-08-17T06:53:35.326Z,22.90
2022-08-17T06:56:07.785Z,22.91
2022-08-17T06:58:38.885Z,22.93
2022-08-17T07:01:16.120Z,22.93
2022-08-17T07:03:54.562Z,22.97
2022-08-17T07:06:29.128Z,22.99
2022-08-17T07:09:03.696Z,23.02
2022-08-17T07:11:38.827Z,23.04
2022-08-17T07:14:22.318Z,23.07
2022-08-17T07:16:53.546Z,23.11
2022-08-17T07:19:26.018Z,23.14
2022-08-17T07:22:04.627Z,23.18
2022-08-17T07:24:37.221Z,23.22
2022-08-17T07:27:13.168Z,23.25
2022-08-17T07:29:49.408Z,23.29
2022-08-17T07:32:21.338Z,23.32
2022-08-17T07:35:22.996Z,23.37
2022-08-17T07:38:24.165Z,23.39
2022-08-17T07:41:03.722Z,23.42
2022-08-17T07:43:35.174Z,23.47
2022-08-17T07:46:33.964Z,23.51
2022-08-17T07:49:20.736Z,23.55
2022-08-17T07:52:00.470Z,23.59
2022-08-17T07:54:50.101Z,23.64
2022-08-17T07:57:36.444Z,23.68
2022-08-17T08:00:19.319Z,23.71
2022-08-17T08:03:15.526Z,23.74
2022-08-17T08:05:57.337Z,23.77
2022-08-17T08:08:35.675Z,23.80
2022-08-17T08:11:09.259Z,23.83
2022-08-17T08:13:42.796Z,23.84
2022-08-17T08:16:22.572Z,23.84
2022-08-17T08:18:56.843Z,23.85
2022-08-17T08:21:44.816Z,23.87
2022-08-17T08:24:41.715Z,23.90
2022-08-17T08:27:22.892Z,23.93
2022-08-17T08:29:58.066Z,23.97
2022-08-17T08:32:40.467Z,24.03
2022-08-17T08:35:13.728Z,24.07
2022-08-17T08:37:52.885Z,24.12
2022-08-17T08:40:44.013Z,24.16
2022-08-17T08:43:26.659Z,24.18
2022-08-17T08:46:02.469Z,24.20
2022-08-17T08:48:57.957Z,24.22
2022-08-17T08:51:39.670Z,24.23
2022-08-17T08:54:27.000Z,24.25
2022-08-17T08:57:24.183Z,24.24
2022-08-17T09:00:08.710Z,24.23
2022-08-17T09:03:03.866Z,24.22
2022-08-17T09:05:44.642Z,24.24
2022-08-17T09:08:22.295Z,24.23
2022-08-17T09:11:00.790Z,24.23
2022-08-17T09:13:37.638Z,24.24
2022-08-17T09:16:15.217Z,24.24
2022-08-17T09:19:00.554Z,24.24
2022-08-17T09:21:48.392Z,24.24
2022-08-17T09:24:21.313Z,24.24
2022-08-17T09:26:54.924Z,24.22
2022-08-17T09:29:26.372Z,24.22
2022-08-17T09:31:59.633Z,24.22
2022-08-17T09:34:35.987Z,24.22
2022-08-17T09:37:16.333Z,24.20
2022-08-17T09:40:07.386Z,24.21
2022-08-17T09:42:43.692Z,24.21
2022-08-17T09:45:27.631Z,24.21
2022-08-17T09:48:03.192Z,24.21
2022-08-17T09:51:03.409Z,24.22
2022-08-17T09:53:26.092Z,24.20
2022-08-17T09:56:09.993Z,24.20
2022-08-17T09:58:49.774Z,24.16
2022-08-17T10:01:29.100Z,24.16
2022-08-17T10:04:11.746Z,24.15
2022-08-17T10:06:50.302Z,24.14
2022-08-17T10:09:29.320Z,24.14
2022-08-17T10:12:19.941Z,24.12
2022-08-17T10:14:57.543Z,24.10
2022-08-17T10:17:34.031Z,24.10
2022-08-17T10:20:12.014Z,24.09
2022-08-17T10:23:04.472Z,24.07
2022-08-17T10:25:55.666Z,24.07
2022-08-17T10:28:30.082Z,24.05
2022-08-17T10:31:33.606Z,24.05
2022-08-17T10:34:19.947Z,24.04
2022-08-17T10:36:56.399Z,24.03
2022-08-17T10:39:35.940Z,24.01
2022-08-17T10:42:30.764Z,23.98
2022-08-17T10:45:07.780Z,23.92
2022-08-17T10:48:04.677Z,23.85
2022-08-17T10:50:59.754Z,23.80
2022-08-17T10:53:52.537Z,23.76
2022-08-17T10:56:24.471Z,23.72
2022-08-17T10:58:54.964Z,23.71
2022-08-17T11:01:58.921Z,23.69
2022-08-17T11:04:45.854Z,23.68
2022-08-17T11:07:25.400Z,23.68
2022-08-17T11:10:25.361Z,23.68
2022-08-17T11:13:01.876Z,23.67
2022-08-17T11:15:49.513Z,23.64
2022-08-17T11:18:40.974Z,23.66
2022-08-17T11:21:39.233Z,23.66
2022-08-17T11:24:30.526Z,23.67
2022-08-17T11:27:12.390Z,23.70
2022-08-17T11:29:53.676Z,23.75
2022-08-17T11:32:37.196Z,23.80
2022-08-17T11:35:30.267Z,23.89
2022-08-17T11:38:19.980Z,23.99
2022-08-17T11:41:18.406Z,24.10
2022-08-17T11:44:11.036Z,24.26
2022-08-17T11:47:17.910Z,24.42
2022-08-17T11:50:17.518Z,24.61
2022-08-17T11:52:47.950Z,24.74
2022-08-17T11:55:50.637Z,24.86
2022-08-17T11:58:37.377Z,24.96
2022-08-17T12:01:08.581Z,25.01
2022-08-17T12:03:55.301Z,25.05
2022-08-17T12:06:33.090Z,25.10
2022-08-17T12:09:08.186Z,25.13
2022-08-17T12:12:01.580Z,25.18
2022-08-17T12:15:08.129Z,25.22
2022-08-17T12:17:41.442Z,25.24
2022-08-17T12:20:16.244Z,25.27
2022-08-17T12:22:54.746Z,25.28
2022-08-17T12:25:35.897Z,25.30
2022-08-17T12:28:07.735Z,25.31
2022-08-17T12:30:37.403Z,25.35
2022-08-17T12:33:13.332Z,25.38
2022-08-17T12:35:59.661Z,25.41
2022-08-17T12:38:33.180Z,25.40
2022-08-17T12:41:24.358Z,25.42
2022-08-17T12:44:01.993Z,25.45
2022-08-17T12:46:34.776Z,25.47
2022-08-17T12:49:23.847Z,25.53
2022-08-17T12:51:58.129Z,25.60
2022-08-17T12:54:34.485Z,25.63
2022-08-17T12:57:07.516Z,25.65
2022-08-17T12:59:42.275Z,25.66
2022-08-17T13:02:21.488Z,25.68
2022-08-17T13:04:51.371Z,25.73
2022-08-17T13:07:35.652Z,25.78
2022-08-17T13:10:05.656Z,25.84
2022-08-17T13:12:36.452Z,25.96
2022-08-17T13:15:05.568Z,26.06
2022-08-17T13:17:36.510Z,26.18
2022-08-17T13:20:15.692Z,26.25
2022-08-17T13:22:45.249Z,26.21
2022-08-17T13:25:17.775Z,26.16
2022-08-17T13:27:47.632Z,26.13
2022-08-17T13:30:23.767Z,26.15
2022-08-17T13:32:55.004Z,26.19
2022-08-17T13:35:50.136Z,26.27
2022-08-17T13:38:40.420Z,26.38
2022-08-17T13:41:08.837Z,26.43
2022-08-17T13:43:45.578Z,26.44
2022-08-17T13:46:21.148Z,26.45
2022-08-17T13:49:00.282Z,26.47
2022-08-17T13:51:36.581Z,26.51
2022-08-17T13:54:24.317Z,26.46
2022-08-17T13:57:00.336Z,26.42
2022-08-17T13:59:52.985Z,26.40
2022-08-17T14:02:25.853Z,26.37
2022-08-17T14:05:00.495Z,26.34
2022-08-17T14:07:35.813Z,26.31
2022-08-17T14:10:12.563Z,26.30
2022-08-17T14:12:42.952Z,26.31
2022-08-17T14:15:12.822Z,26.30
2022-08-17T14:17:41.207Z,26.31
2022-08-17T14:20:12.057Z,26.34
2022-08-17T14:22:45.313Z,26.38
2022-08-17T14:25:16.385Z,26.50
2022-08-17T14:27:52.765Z,26.69
2022-08-17T14:30:24.943Z,26.84
2022-08-17T14:32:54.565Z,27.01
2022-08-17T14:35:27.829Z,27.02
2022-08-17T14:37:58.063Z,26.99
2022-08-17T14:40:29.834Z,26.93
2022-08-17T14:42:58.398Z,26.85
2022-08-17T14:45:32.261Z,26.82
2022-08-17T14:48:05.566Z,26.81
2022-08-17T14:50:35.470Z,26.88
2022-08-17T14:53:06.998Z,26.99
2022-08-17T14:55:41.837Z,26.98
2022-08-17T14:58:13.190Z,26.93
2022-08-17T15:00:43.571Z,26.94
2022-08-17T15:03:12.508Z,27.03
2022-08-17T15:05:41.061Z,27.15
2022-08-17T15:08:11.008Z,27.28
2022-08-17T15:10:41.437Z,27.42
2022-08-17T15:13:18.027Z,27.53
2022-08-17T15:15:46.784Z,27.64
2022-08-17T15:18:15.196Z,27.78
2022-08-17T15:20:44.707Z,27.92
2022-08-17T15:23:15.806Z,28.02
2022-08-17T15:25:44.733Z,28.13
2022-08-17T15:28:13.595Z,28.24
2022-08-17T15:30:43.080Z,28.37
2022-08-17T15:33:15.406Z,28.47
2022-08-17T15:35:50.593Z,28.57
2022-08-17T15:38:20.452Z,28.67
2022-08-17T15:40:52.215Z,28.75
2022-08-17T15:43:27.384Z,28.73
2022-08-17T15:46:00.450Z,28.66
2022-08-17T15:48:41.291Z,28.55
2022-08-17T15:51:12.060Z,28.45
2022-08-17T15:53:46.546Z,28.32
2022-08-17T15:56:16.276Z,28.30
2022-08-17T15:58:46.626Z,28.34
2022-08-17T16:01:42.263Z,28.39
2022-08-17T16:04:23.576Z,28.41
2022-08-17T16:06:54.220Z,28.44
2022-08-17T16:09:23.954Z,28.51
2022-08-17T16:11:55.936Z,28.62
2022-08-17T16:14:32.316Z,28.69
2022-08-17T16:17:03.379Z,28.70
2022-08-17T16:19:32.437Z,28.68
2022-08-17T16:22:01.304Z,28.68
2022-08-17T16:24:31.648Z,28.63
2022-08-17T16:27:00.135Z,28.54
2022-08-17T16:29:28.793Z,28.50
2022-08-17T16:31:58.123Z,28.50
2022-08-17T16:34:26.581Z,28.50
2022-08-17T16:36:56.448Z,28.44
2022-08-17T16:39:27.133Z,28.41
2022-08-17T16:41:57.399Z,28.41
2022-08-17T16:44:31.659Z,28.33
2022-08-17T16:47:01.271Z,28.28
2022-08-17T16:49:37.060Z,28.28
2022-08-17T16:52:11.057Z,28.30
2022-08-17T16:54:43.282Z,28.26
2022-08-17T16:57:14.520Z,28.25
2022-08-17T16:59:47.787Z,28.14
2022-08-17T17:02:18.014Z,28.08
2022-08-17T17:04:51.576Z,27.95
2022-08-17T17:07:35.284Z,27.81
2022-08-17T17:10:08.678Z,27.63
2022-08-17T17:13:01.377Z,27.50
2022-08-17T17:15:42.858Z,27.34
2022-08-17T17:18:15.193Z,27.20
2022-08-17T17:20:50.678Z,27.08
2022-08-17T17:23:37.455Z,26.94
2022-08-17T17:26:24.551Z,26.78
2022-08-17T17:29:11.802Z,26.65
2022-08-17T17:31:48.568Z,26.53
2022-08-17T17:34:18.406Z,26.45
2022-08-17T17:36:51.456Z,26.36
2022-08-17T17:39:25.692Z,26.27
2022-08-17T17:41:58.156Z,26.17
2022-08-17T17:44:31.435Z,26.09
2022-08-17T17:47:02.339Z,26.01
2022-08-17T17:49:36.197Z,25.93
2022-08-17T17:52:18.410Z,25.85
2022-08-17T17:55:13.032Z,25.77
2022-08-17T17:57:55.695Z,25.69
2022-08-17T18:00:31.646Z,25.65
2022-08-17T18:03:15.109Z,25.57
2022-08-17T18:06:10.379Z,25.50
2022-08-17T18:08:55.864Z,25.43
2022-08-17T18:11:50.752Z,25.38
2022-08-17T18:14:30.563Z,25.32
2022-08-17T18:17:02.119Z,25.29
2022-08-17T18:19:32.832Z,25.25
2022-08-17T18:22:14.078Z,25.22
2022-08-17T18:24:45.908Z,25.18
2022-08-17T18:27:24.299Z,25.14
2022-08-17T18:29:54.511Z,25.09
2022-08-17T18:32:36.506Z,25.04
2022-08-17T18:35:28.527Z,24.98
2022-08-17T18:37:59.064Z,24.94
2022-08-17T18:40:37.946Z,24.89
2022-08-17T18:43:24.309Z,24.83
2022-08-17T18:45:54.485Z,24.77
2022-08-17T18:48:32.869Z,24.72
2022-08-17T18:51:21.323Z,24.67
2022-08-17T18:54:18.540Z,24.61
2022-08-17T18:56:52.389Z,24.59
2022-08-17T18:59:28.160Z,24.56
2022-08-17T19:02:15.331Z,24.54
2022-08-17T19:05:04.096Z,24.50
2022-08-17T19:07:34.854Z,24.47
2022-08-17T19:10:11.903Z,24.45
2022-08-17T19:12:45.161Z,24.40
2022-08-17T19:15:19.052Z,24.36
2022-08-17T19:17:53.846Z,24.28
2022-08-17T19:20:31.366Z,24.20
2022-08-17T19:23:16.790Z,24.13
2022-08-17T19:25:49.492Z,24.05
2022-08-17T19:28:24.573Z,23.98
2022-08-17T19:30:57.573Z,23.90
2022-08-17T19:33:27.248Z,23.82
2022-08-17T19:36:08.169Z,23.74
2022-08-17T19:38:49.639Z,23.67
2022-08-17T19:41:25.155Z,23.61
2022-08-17T19:44:07.046Z,23.55
2022-08-17T19:46:49.900Z,23.51
2022-08-17T19:49:33.258Z,23.43
2022-08-17T19:52:29.781Z,23.37
2022-08-17T19:55:06.172Z,23.32
2022-08-17T19:57:47.846Z,23.30
2022-08-17T20:00:18.595Z,23.27
2022-08-17T20:02:55.341Z,23.23
2022-08-17T20:05:28.079Z,23.18
2022-08-17T20:08:03.561Z,23.12
2022-08-17T20:10:40.308Z,23.06
2022-08-17T20:13:14.741Z,22.98
2022-08-17T20:15:46.248Z,22.89
2022-08-17T20:18:24.844Z,22.82
2022-08-17T20:20:59.325Z,22.74
2022-08-17T20:23:46.226Z,22.67
2022-08-17T20:26:22.282Z,22.58
2022-08-17T20:29:07.654Z,22.51
2022-08-17T20:31:48.989Z,22.43
2022-08-17T20:34:37.313Z,22.36
2022-08-17T20:37:09.780Z,22.29
2022-08-17T20:39:43.043Z,22.21
2022-08-17T20:42:30.364Z,22.13
2022-08-17T20:45:03.408Z,22.08
2022-08-17T20:47:36.953Z,22.03
2022-08-17T20:50:09.279Z,21.97
2022-08-17T20:52:52.978Z,21.91
2022-08-17T20:55:55.805Z,21.86
2022-08-17T20:59:00.676Z,21.79
2022-08-17T21:01:38.819Z,21.73
2022-08-17T21:04:09.058Z,21.66
2022-08-17T21:07:17.177Z,21.59
2022-08-17T21:09:46.272Z,21.52
2022-08-17T21:12:40.115Z,21.45
2022-08-17T21:15:23.469Z,21.39
2022-08-17T21:18:03.717Z,21.33
2022-08-17T21:20:42.636Z,21.28
2022-08-17T21:23:36.618Z,21.21
2022-08-17T21:26:22.942Z,21.16
2022-08-17T21:29:17.883Z,21.11
2022-08-17T21:32:19.281Z,21.04
2022-08-17T21:35:39.082Z,20.97
2022-08-17T21:38:14.793Z,20.88
2022-08-17T21:40:47.024Z,20.82
2022-08-17T21:43:25.387Z,20.76
2022-08-17T21:46:02.332Z,20.72
2022-08-17T21:48:32.770Z,20.67
2022-08-17T21:51:08.389Z,20.63
2022-08-17T21:53:41.226Z,20.58
2022-08-17T21:56:11.930Z,20.54
2022-08-17T21:58:48.392Z,20.51
2022-08-17T22:01:25.654Z,20.48
2022-08-17T22:04:05.022Z,20.45
2022-08-17T22:06:38.538Z,20.43
2022-08-17T22:09:14.730Z,20.41
2022-08-17T22:11:52.527Z,20.38
2022-08-17T22:14:22.444Z,20.35
2022-08-17T22:17:16.428Z,20.31
2022-08-17T22:19:48.886Z,20.27
2022-08-17T22:22:28.463Z,20.24
2022-08-17T22:24:59.310Z,20.20
2022-08-17T22:27:49.096Z,20.16
2022-08-17T22:30:36.211Z,20.12
2022-08-17T22:33:37.145Z,20.09
2022-08-17T22:36:25.080Z,20.07
2022-08-17T22:38:55.511Z,20.03
2022-08-17T22:41:51.381Z,20.00
2022-08-17T22:44:29.579Z,19.93
2022-08-17T22:47:11.485Z,19.86
2022-08-17T22:49:53.625Z,19.85
2022-08-17T22:52:32.614Z,19.83
2022-08-17T22:55:23.545Z,19.81
2022-08-17T22:58:09.635Z,19.80
2022-08-17T23:00:42.220Z,19.78
2022-08-17T23:03:17.538Z,19.76
2022-08-17T23:05:49.570Z,19.74
2022-08-17T23:08:21.192Z,19.72
2022-08-17T23:10:50.309Z,19.69
2022-08-17T23:13:21.698Z,19.66
2022-08-17T23:15:52.061Z,19.63
2022-08-17T23:18:20.471Z,19.59
2022-08-17T23:20:50.225Z,19.56
2022-08-17T23:23:23.372Z,19.53
2022-08-17T23:25:52.132Z,19.49
2022-08-17T23:28:21.444Z,19.47
2022-08-17T23:30:50.375Z,19.43
2022-08-17T23:33:22.430Z,19.38
2022-08-17T23:35:53.485Z,19.33
2022-08-17T23:38:22.106Z,19.29
2022-08-17T23:40:50.486Z,19.27
2022-08-17T23:43:25.661Z,19.25
2022-08-17T23:45:59.537Z,19.24
2022-08-17T23:48:35.844Z,19.23
2022-08-17T23:51:13.287Z,19.21
2022-08-17T23:53:47.230Z,19.17
2022-08-17T23:56:17.682Z,19.15
2022-08-17T23:58:46.600Z,19.12
